Terminal Aerodrome Forecast
Issued by NWS Tuscon, AZ

Home | Current Version | Previous Version | Text Only | Print | Product List | Glossary On
Versions: 1 2 3 4 5 6 7 8 9 10 11 12 13 14 15 16
000
FTUS45 KTWC 030523
TAFTUS
TAF
KTUS 030523Z 0306/0406 17006KT P6SM SCT250
     FM030800 15006KT P6SM SKC
     FM031700 VRB04KT P6SM FEW080 SCT250
     FM032200 30006KT P6SM SCT090 SCT250
     FM040400 VRB05KT P6SM SKC=

USA.gov is the U.S. government's official web portal to all federal, state and local government web resources and services.